Time;durP1;ratioP1;P1;durP2;ratioP2;P2;SDS_P1;SDS_P2;PMS_P1;PMS_P2;Temp;Humidity;BMP_temperature;BMP_pressure;BME280_temperature;BME280_humidity;BME280_pressure;Samples;Min_cycle;Max_cycle;Signal;HPM_P1;HPM_P2
2022/01/31 00:02:23;;;;;;;0.70;0.50;;;3.10;99.90;;;;;;5135076;27;20199;-74
2022/01/31 00:04:50;;;;;;;2.07;0.67;;;3.10;99.90;;;;;;5138862;27;20298;-74
2022/01/31 00:07:17;;;;;;;0.93;0.50;;;3.10;99.90;;;;;;5136441;27;20235;-73
2022/01/31 00:09:45;;;;;;;0.63;0.50;;;3.00;99.90;;;;;;5128672;27;20230;-73
2022/01/31 00:12:15;;;;;;;1.17;0.40;;;3.00;99.90;;;;;;5139128;27;20634;-74
2022/01/31 00:14:43;;;;;;;1.67;0.60;;;3.00;99.90;;;;;;5137139;27;20285;-74
2022/01/31 00:17:11;;;;;;;0.77;0.60;;;3.00;99.90;;;;;;5128958;27;20231;-75
2022/01/31 00:19:41;;;;;;;0.40;0.40;;;2.90;99.90;;;;;;5125459;27;20213;-73
2022/01/31 00:22:09;;;;;;;1.87;0.50;;;2.90;99.90;;;;;;5122370;27;20204;-73
2022/01/31 00:24:36;;;;;;;0.87;0.40;;;3.00;99.90;;;;;;5129939;27;20660;-73
2022/01/31 00:27:06;;;;;;;0.30;0.30;;;3.00;99.90;;;;;;5135486;27;20195;-74
2022/01/31 00:29:33;;;;;;;1.43;0.40;;;3.00;99.90;;;;;;5130718;27;20235;-74
2022/01/31 00:32:02;;;;;;;1.67;0.33;;;3.00;99.90;;;;;;5141714;27;20214;-73
2022/01/31 00:34:30;;;;;;;0.60;0.40;;;3.00;99.90;;;;;;5119690;27;20212;-74
2022/01/31 00:36:57;;;;;;;4.63;0.63;;;2.90;99.90;;;;;;5131287;27;20211;-74
2022/01/31 00:39:24;;;;;;;1.67;0.50;;;3.00;99.90;;;;;;5134316;27;20621;-73
2022/01/31 00:41:51;;;;;;;1.10;0.50;;;3.00;99.90;;;;;;5127772;27;20214;-74
2022/01/31 00:44:26;;;;;;;2.10;0.63;;;3.00;99.90;;;;;;5129929;27;20541;-74
2022/01/31 00:46:58;;;;;;;1.23;0.37;;;3.00;99.90;;;;;;5118224;27;20202;-74
2022/01/31 00:49:35;;;;;;;0.60;0.50;;;2.90;99.90;;;;;;5133636;27;20221;-74
2022/01/31 00:52:04;;;;;;;2.67;0.70;;;3.00;99.90;;;;;;5133710;27;20207;-74
2022/01/31 00:54:31;;;;;;;0.57;0.57;;;3.00;99.90;;;;;;5129331;27;20236;-71
2022/01/31 00:56:58;;;;;;;0.70;0.60;;;3.00;99.90;;;;;;5131483;27;20222;-73
2022/01/31 00:59:26;;;;;;;1.67;0.60;;;3.00;99.90;;;;;;5131162;27;20687;-70
2022/01/31 01:01:53;;;;;;;2.20;0.60;;;3.10;99.90;;;;;;5133579;27;20222;-70
2022/01/31 01:04:20;;;;;;;0.87;0.50;;;3.10;99.90;;;;;;5128999;27;20196;-74
2022/01/31 01:06:47;;;;;;;0.63;0.60;;;3.10;99.90;;;;;;5130775;27;20238;-69
2022/01/31 01:09:14;;;;;;;2.77;0.70;;;3.10;99.90;;;;;;5122853;27;20742;-69
2022/01/31 01:11:41;;;;;;;0.70;0.70;;;3.10;99.90;;;;;;5133280;27;20670;-69
2022/01/31 01:14:08;;;;;;;1.90;0.67;;;3.10;99.90;;;;;;5131826;27;20267;-69
2022/01/31 01:16:36;;;;;;;0.97;0.57;;;3.10;99.90;;;;;;5124116;27;20211;-69
2022/01/31 01:19:04;;;;;;;1.10;0.57;;;3.00;99.90;;;;;;5133665;27;20219;-70
2022/01/31 01:21:31;;;;;;;1.13;0.70;;;3.00;99.90;;;;;;5126228;27;20291;-70
2022/01/31 01:23:58;;;;;;;0.60;0.60;;;3.00;99.90;;;;;;5118632;27;20667;-69
2022/01/31 01:26:25;;;;;;;1.77;0.67;;;2.90;99.90;;;;;;5122020;27;20210;-70
2022/01/31 01:28:52;;;;;;;1.60;0.70;;;2.90;99.90;;;;;;5123208;27;20280;-69
2022/01/31 01:31:19;;;;;;;1.60;0.80;;;2.80;99.90;;;;;;5130772;27;20636;-69
2022/01/31 01:33:47;;;;;;;1.73;0.80;;;2.80;99.90;;;;;;5122803;27;20226;-69
2022/01/31 01:36:14;;;;;;;1.50;0.50;;;2.80;99.90;;;;;;5116689;27;20652;-70
2022/01/31 01:38:41;;;;;;;1.67;0.70;;;2.70;99.90;;;;;;5125792;27;20215;-68
2022/01/31 01:41:08;;;;;;;0.87;0.53;;;2.60;99.90;;;;;;5124373;27;20291;-69
2022/01/31 01:43:35;;;;;;;0.90;0.53;;;2.70;99.90;;;;;;5126378;27;20297;-70
2022/01/31 01:46:02;;;;;;;2.10;0.70;;;2.60;99.90;;;;;;5123302;27;20208;-71
2022/01/31 01:48:29;;;;;;;0.77;0.60;;;2.60;99.90;;;;;;5131542;27;20231;-69
2022/01/31 01:50:59;;;;;;;3.13;0.60;;;2.60;99.90;;;;;;5132991;27;20199;-69
2022/01/31 01:53:26;;;;;;;3.23;0.40;;;2.50;99.90;;;;;;5128415;27;20203;-68
2022/01/31 01:55:54;;;;;;;1.33;0.50;;;2.50;99.90;;;;;;5115939;27;20200;-71
2022/01/31 01:58:22;;;;;;;0.97;0.50;;;2.50;99.90;;;;;;5126269;27;20679;-70
2022/01/31 02:00:52;;;;;;;0.90;0.47;;;2.50;99.90;;;;;;5127081;27;20266;-68
2022/01/31 02:03:19;;;;;;;1.33;0.60;;;2.40;99.90;;;;;;5128021;27;20563;-70
2022/01/31 02:05:47;;;;;;;2.00;0.67;;;2.40;99.90;;;;;;5122422;27;20200;-70
2022/01/31 02:08:18;;;;;;;0.77;0.60;;;2.40;99.90;;;;;;5126369;27;20690;-70
2022/01/31 02:10:45;;;;;;;1.50;1.23;;;2.40;99.90;;;;;;5132252;27;20203;-70
2022/01/31 02:13:15;;;;;;;2.37;0.60;;;2.40;99.90;;;;;;5135646;27;20338;-69
2022/01/31 02:15:44;;;;;;;2.67;0.73;;;2.40;99.90;;;;;;5139757;27;20211;-69
2022/01/31 02:18:11;;;;;;;2.17;0.87;;;2.40;99.90;;;;;;5132218;27;20278;-69
2022/01/31 02:20:41;;;;;;;2.53;0.63;;;2.40;99.90;;;;;;5131630;27;20203;-71
2022/01/31 02:23:08;;;;;;;1.90;0.70;;;2.40;99.90;;;;;;5126005;27;20585;-69
2022/01/31 02:25:51;;;;;;;0.90;0.47;;;2.50;99.90;;;;;;5121137;27;20206;-69
2022/01/31 02:28:18;;;;;;;1.33;0.50;;;2.50;99.90;;;;;;5128476;27;20204;-68
2022/01/31 02:30:44;;;;;;;2.30;0.50;;;2.50;99.90;;;;;;5126647;27;20199;-69
2022/01/31 02:33:11;;;;;;;2.30;0.80;;;2.50;99.90;;;;;;5132388;27;20213;-68
2022/01/31 02:35:39;;;;;;;0.77;0.67;;;2.60;99.90;;;;;;5125177;27;20607;-69
2022/01/31 02:38:06;;;;;;;1.40;0.70;;;2.60;99.90;;;;;;5131316;27;20215;-69
2022/01/31 02:40:33;;;;;;;2.63;0.73;;;2.70;99.90;;;;;;5132670;27;20234;-69
2022/01/31 02:43:00;;;;;;;1.20;0.70;;;2.70;99.90;;;;;;5136273;27;20203;-70
2022/01/31 02:45:27;;;;;;;0.60;0.40;;;2.70;99.90;;;;;;5132816;27;20207;-70
2022/01/31 02:47:56;;;;;;;0.47;0.40;;;2.70;99.90;;;;;;5132873;27;20556;-69
2022/01/31 02:50:23;;;;;;;2.67;0.60;;;2.70;99.90;;;;;;5140406;27;20209;-70
2022/01/31 02:53:00;;;;;;;1.93;0.87;;;2.70;99.90;;;;;;5141702;27;20644;-69
2022/01/31 02:55:27;;;;;;;1.60;0.70;;;2.80;99.90;;;;;;5139503;27;20288;-70
2022/01/31 02:57:54;;;;;;;1.23;0.60;;;2.80;99.90;;;;;;5139494;27;20263;-69
2022/01/31 03:00:21;;;;;;;1.40;0.70;;;2.70;99.90;;;;;;5132957;28;20199;-69
2022/01/31 03:02:47;;;;;;;2.23;1.17;;;2.70;99.90;;;;;;5133488;28;20286;-69
2022/01/31 03:05:14;;;;;;;0.73;0.73;;;2.70;99.90;;;;;;5127812;27;20209;-69
2022/01/31 03:07:41;;;;;;;2.40;0.90;;;2.70;99.90;;;;;;5131597;27;20556;-70
2022/01/31 03:10:10;;;;;;;2.07;0.73;;;2.80;99.90;;;;;;5134891;27;20202;-70
2022/01/31 03:12:36;;;;;;;2.17;0.70;;;2.70;99.90;;;;;;5136651;27;20634;-69
2022/01/31 03:15:04;;;;;;;8.43;1.10;;;2.80;99.90;;;;;;5137206;27;20298;-69
2022/01/31 03:17:31;;;;;;;2.53;1.00;;;2.70;99.90;;;;;;5136364;27;20198;-69
2022/01/31 03:19:58;;;;;;;2.40;1.20;;;2.80;99.90;;;;;;5138495;27;20231;-69
2022/01/31 03:22:25;;;;;;;4.33;1.63;;;2.80;99.90;;;;;;5126804;27;20298;-69
2022/01/31 03:24:52;;;;;;;2.30;1.30;;;2.80;99.90;;;;;;5135998;27;20220;-69
2022/01/31 03:27:20;;;;;;;4.63;1.40;;;2.80;99.90;;;;;;5131687;27;20563;-69
2022/01/31 03:29:47;;;;;;;3.67;1.20;;;2.70;99.90;;;;;;5125899;27;20207;-69
2022/01/31 03:32:13;;;;;;;5.43;1.53;;;2.70;99.90;;;;;;5142325;27;20206;-70
2022/01/31 03:34:40;;;;;;;5.00;1.97;;;2.70;99.90;;;;;;5122282;27;20206;-69
2022/01/31 03:37:07;;;;;;;3.83;1.40;;;2.70;99.90;;;;;;5129840;27;20209;-69
2022/01/31 03:39:34;;;;;;;3.57;1.77;;;2.70;99.90;;;;;;5136122;27;20227;-69
2022/01/31 03:42:01;;;;;;;4.23;1.53;;;2.70;99.90;;;;;;5134070;27;20210;-70
2022/01/31 03:44:30;;;;;;;3.03;1.73;;;2.70;99.90;;;;;;5134482;27;20598;-70
2022/01/31 03:46:57;;;;;;;2.57;1.60;;;2.80;99.90;;;;;;5136687;27;20199;-70
2022/01/31 03:49:24;;;;;;;3.67;1.63;;;2.80;99.90;;;;;;5136977;27;20242;-69
2022/01/31 03:51:51;;;;;;;6.30;1.77;;;2.80;99.90;;;;;;5137202;27;20217;-70
2022/01/31 03:54:18;;;;;;;8.87;2.20;;;2.90;99.90;;;;;;5141436;27;20298;-69
2022/01/31 03:56:45;;;;;;;5.70;2.17;;;2.90;99.90;;;;;;5131578;27;20239;-70
2022/01/31 03:59:11;;;;;;;6.37;2.07;;;2.90;99.90;;;;;;5133924;27;20219;-70
2022/01/31 04:01:39;;;;;;;4.67;2.33;;;2.90;99.90;;;;;;5140183;27;20614;-69
2022/01/31 04:04:10;;;;;;;5.57;2.03;;;2.90;99.90;;;;;;5127230;27;20200;-69
2022/01/31 04:06:37;;;;;;;4.23;1.70;;;2.90;99.90;;;;;;5128126;27;20238;-70
2022/01/31 04:09:05;;;;;;;3.30;1.60;;;2.90;99.90;;;;;;5125799;27;20221;-70
2022/01/31 04:11:32;;;;;;;3.27;1.43;;;2.80;99.90;;;;;;5137810;27;20209;-69
2022/01/31 04:13:59;;;;;;;5.27;1.47;;;2.80;99.90;;;;;;5134335;27;20199;-70
2022/01/31 04:16:26;;;;;;;6.70;1.57;;;2.70;99.90;;;;;;5132699;27;20203;-69
2022/01/31 04:18:54;;;;;;;5.07;2.03;;;2.70;99.90;;;;;;5136113;27;20557;-70
2022/01/31 04:21:22;;;;;;;5.73;1.50;;;2.70;99.90;;;;;;5129859;27;20565;-69
2022/01/31 04:23:50;;;;;;;9.87;2.03;;;2.70;99.90;;;;;;5129645;27;20299;-69
2022/01/31 04:26:17;;;;;;;6.17;2.00;;;2.70;99.90;;;;;;5131137;27;20219;-70
2022/01/31 04:28:46;;;;;;;8.97;2.40;;;2.70;99.90;;;;;;5127569;27;20717;-69
2022/01/31 04:31:36;;;;;;;6.33;2.33;;;2.60;99.90;;;;;;5135588;27;20207;-69
2022/01/31 04:34:04;;;;;;;4.90;1.90;;;2.60;99.90;;;;;;5123407;27;20207;-68
2022/01/31 04:36:31;;;;;;;6.53;2.03;;;2.60;99.90;;;;;;5129790;27;20208;-69
2022/01/31 04:38:58;;;;;;;7.77;1.87;;;2.60;99.90;;;;;;5128952;27;20211;-70
2022/01/31 04:41:25;;;;;;;11.40;1.90;;;2.50;99.90;;;;;;5134907;27;20291;-69
2022/01/31 04:43:54;;;;;;;7.83;2.17;;;2.50;99.90;;;;;;5117718;27;20208;-69
2022/01/31 04:46:21;;;;;;;7.57;2.00;;;2.50;99.90;;;;;;5116330;27;20267;-69
2022/01/31 04:48:48;;;;;;;6.37;2.00;;;2.50;99.90;;;;;;5122917;27;20282;-69
2022/01/31 04:51:16;;;;;;;7.97;2.30;;;2.50;99.90;;;;;;5133189;27;20210;-69
2022/01/31 04:53:43;;;;;;;4.40;2.10;;;2.40;99.90;;;;;;5118838;27;20208;-69
2022/01/31 04:56:10;;;;;;;5.13;2.20;;;2.40;99.90;;;;;;5136762;27;20231;-70
2022/01/31 04:58:37;;;;;;;11.17;3.10;;;2.40;99.90;;;;;;5134831;27;20231;-69
2022/01/31 05:01:04;;;;;;;3.93;2.27;;;2.30;99.90;;;;;;5147030;27;20324;-69
2022/01/31 05:03:31;;;;;;;9.37;2.40;;;2.30;99.90;;;;;;5131343;27;20607;-69
2022/01/31 05:05:58;;;;;;;8.83;2.63;;;2.30;99.90;;;;;;5128986;27;20633;-70
2022/01/31 05:08:28;;;;;;;3.17;1.93;;;2.30;99.90;;;;;;5123851;27;20291;-69
2022/01/31 05:10:55;;;;;;;9.77;2.57;;;2.30;99.90;;;;;;5135458;27;20302;-69
2022/01/31 05:13:21;;;;;;;7.70;1.97;;;2.30;99.90;;;;;;5132299;27;20230;-69
2022/01/31 05:15:53;;;;;;;6.37;2.83;;;2.30;99.90;;;;;;5128778;27;20210;-70
2022/01/31 05:18:19;;;;;;;5.50;1.90;;;2.30;99.90;;;;;;5131734;27;20230;-70
2022/01/31 05:20:46;;;;;;;6.50;2.53;;;2.30;99.90;;;;;;5135320;27;20962;-69
2022/01/31 05:23:13;;;;;;;7.27;2.20;;;2.30;99.90;;;;;;5118572;27;20207;-68
2022/01/31 05:25:41;;;;;;;8.10;2.13;;;2.20;99.90;;;;;;5146671;27;20639;-69
2022/01/31 05:28:09;;;;;;;7.83;2.00;;;2.20;99.90;;;;;;5123710;27;20607;-70
2022/01/31 05:30:36;;;;;;;7.43;2.27;;;2.20;99.90;;;;;;5127616;27;20191;-70
2022/01/31 05:33:04;;;;;;;10.53;2.83;;;2.10;99.90;;;;;;5134399;27;20195;-70
2022/01/31 05:35:31;;;;;;;8.77;2.90;;;2.20;99.90;;;;;;5144340;27;20419;-70
2022/01/31 05:37:58;;;;;;;7.17;2.60;;;2.20;99.90;;;;;;5128199;27;20210;-70
2022/01/31 05:40:25;;;;;;;4.33;1.97;;;2.10;99.90;;;;;;5139507;27;20222;-70
2022/01/31 05:42:53;;;;;;;7.90;2.70;;;2.10;99.90;;;;;;5133094;27;20207;-69
2022/01/31 05:45:20;;;;;;;6.47;2.50;;;2.10;99.90;;;;;;5114789;27;20199;-69
2022/01/31 05:47:47;;;;;;;6.90;2.40;;;2.00;99.90;;;;;;5127373;27;20207;-69
2022/01/31 05:50:13;;;;;;;6.33;2.40;;;2.00;99.90;;;;;;5126481;27;20192;-69
2022/01/31 05:52:40;;;;;;;8.20;2.50;;;2.00;99.90;;;;;;5134294;27;20215;-70
2022/01/31 05:55:08;;;;;;;9.80;2.67;;;1.90;99.90;;;;;;5128606;27;20204;-69
2022/01/31 05:57:35;;;;;;;7.93;2.40;;;1.90;99.90;;;;;;5124193;27;20231;-70
2022/01/31 06:00:04;;;;;;;12.03;3.07;;;2.00;99.90;;;;;;5134678;27;20226;-70
2022/01/31 06:02:31;;;;;;;9.43;3.10;;;1.90;99.90;;;;;;5128222;27;20199;-70
2022/01/31 06:04:58;;;;;;;7.27;2.80;;;1.90;99.90;;;;;;5135527;27;20674;-69
2022/01/31 06:07:25;;;;;;;6.77;2.93;;;1.80;99.90;;;;;;5131817;27;20241;-70
2022/01/31 06:09:52;;;;;;;6.43;2.87;;;1.90;99.90;;;;;;5132553;27;20206;-70
2022/01/31 06:12:19;;;;;;;8.23;3.07;;;1.90;99.90;;;;;;5136001;27;20679;-70
2022/01/31 06:14:45;;;;;;;10.13;3.43;;;1.80;99.90;;;;;;5141326;27;20367;-70
2022/01/31 06:17:14;;;;;;;10.50;3.80;;;1.90;99.90;;;;;;5126926;27;20286;-71
2022/01/31 06:19:41;;;;;;;10.63;2.87;;;1.80;99.90;;;;;;5134522;27;20594;-71
2022/01/31 06:22:07;;;;;;;9.70;2.97;;;1.80;99.90;;;;;;5130051;27;20199;-69
2022/01/31 06:24:34;;;;;;;5.67;2.60;;;1.90;99.90;;;;;;5134018;27;20226;-70
2022/01/31 06:27:02;;;;;;;9.90;2.93;;;2.00;99.90;;;;;;5128406;27;20225;-69
2022/01/31 06:29:28;;;;;;;10.90;3.53;;;1.90;99.90;;;;;;5128258;27;20200;-69
2022/01/31 06:31:56;;;;;;;7.80;2.97;;;1.90;99.90;;;;;;5140528;27;20234;-69
2022/01/31 06:34:24;;;;;;;10.53;2.97;;;1.90;99.90;;;;;;5137369;27;20211;-70
2022/01/31 06:36:51;;;;;;;6.40;2.90;;;1.90;99.90;;;;;;5141090;27;20214;-69
2022/01/31 06:39:17;;;;;;;8.47;2.87;;;1.90;99.90;;;;;;5125563;27;20306;-70
2022/01/31 06:41:44;;;;;;;8.37;3.10;;;1.90;99.90;;;;;;5116912;27;20229;-69
2022/01/31 06:44:11;;;;;;;7.70;2.77;;;1.90;99.90;;;;;;5116023;27;20207;-69
2022/01/31 06:46:38;;;;;;;11.43;3.03;;;1.90;99.90;;;;;;5130866;27;20679;-69
2022/01/31 06:49:05;;;;;;;4.67;2.43;;;1.90;99.90;;;;;;5131961;27;20199;-70
2022/01/31 06:51:33;;;;;;;9.40;2.40;;;1.80;99.90;;;;;;5133566;27;20583;-71
2022/01/31 06:54:01;;;;;;;13.47;2.97;;;1.80;99.90;;;;;;5117472;28;20226;-71
2022/01/31 06:56:30;;;;;;;7.73;2.63;;;1.80;99.90;;;;;;5130485;28;20238;-72
2022/01/31 06:58:58;;;;;;;8.77;2.93;;;1.80;99.90;;;;;;5136444;27;20694;-71
2022/01/31 07:01:25;;;;;;;5.43;2.60;;;1.90;99.90;;;;;;5147065;27;20225;-71
2022/01/31 07:03:54;;;;;;;8.63;2.83;;;1.90;99.90;;;;;;5141871;27;20292;-71
2022/01/31 07:06:21;;;;;;;9.60;3.30;;;1.90;99.90;;;;;;5125926;28;20245;-70
2022/01/31 07:08:50;;;;;;;11.13;3.20;;;2.00;99.90;;;;;;5116010;27;20202;-70
2022/01/31 07:11:21;;;;;;;6.03;3.07;;;2.10;99.90;;;;;;5138678;27;20199;-71
2022/01/31 07:13:53;;;;;;;12.20;3.37;;;2.20;99.90;;;;;;5134563;27;20203;-70
2022/01/31 07:16:20;;;;;;;5.43;2.63;;;2.30;99.90;;;;;;5125929;27;20665;-71
2022/01/31 07:18:51;;;;;;;6.40;3.00;;;2.30;99.90;;;;;;5141879;27;20199;-71
2022/01/31 07:21:18;;;;;;;6.90;2.90;;;2.30;99.90;;;;;;5133548;27;20203;-71
2022/01/31 07:24:04;;;;;;;9.10;3.40;;;2.30;99.90;;;;;;5125327;27;20208;-75
2022/01/31 07:26:32;;;;;;;9.37;3.37;;;2.30;99.90;;;;;;5132292;27;20225;-75
2022/01/31 07:28:59;;;;;;;8.93;2.93;;;2.30;99.90;;;;;;5141254;27;20234;-76
2022/01/31 07:31:26;;;;;;;11.27;3.83;;;2.30;99.90;;;;;;5124121;28;20485;-77
2022/01/31 07:33:54;;;;;;;11.30;3.47;;;2.20;99.90;;;;;;5144699;27;20314;-78
2022/01/31 07:36:22;;;;;;;9.33;3.30;;;2.20;99.90;;;;;;5122379;27;20574;-77
2022/01/31 07:38:48;;;;;;;7.20;3.47;;;2.10;99.90;;;;;;5127740;27;20211;-75
2022/01/31 07:41:15;;;;;;;12.50;3.97;;;2.20;99.90;;;;;;5125358;27;20232;-75
2022/01/31 07:43:44;;;;;;;8.93;3.13;;;2.20;99.90;;;;;;5134749;27;20283;-75
2022/01/31 07:46:12;;;;;;;7.80;3.10;;;2.30;99.90;;;;;;5135942;27;20234;-70
2022/01/31 07:48:39;;;;;;;9.00;2.70;;;2.40;99.90;;;;;;5133338;27;20208;-75
2022/01/31 07:51:08;;;;;;;7.70;2.97;;;2.40;99.90;;;;;;5133311;27;20230;-73
2022/01/31 07:53:37;;;;;;;7.43;2.90;;;2.40;99.90;;;;;;5137521;27;20179;-74
2022/01/31 07:56:08;;;;;;;11.00;3.13;;;2.50;99.90;;;;;;5138271;27;20207;-74
2022/01/31 07:58:35;;;;;;;6.97;3.30;;;2.40;99.90;;;;;;5143336;27;20213;-75
2022/01/31 08:01:04;;;;;;;7.43;2.93;;;2.40;99.90;;;;;;5138733;27;20226;-75
2022/01/31 08:03:31;;;;;;;11.13;3.70;;;2.30;99.90;;;;;;5136697;27;20206;-73
2022/01/31 08:05:58;;;;;;;10.00;3.00;;;2.30;99.90;;;;;;5132065;27;20210;-75
2022/01/31 08:08:27;;;;;;;8.13;3.67;;;2.30;99.90;;;;;;5137377;27;20203;-74
2022/01/31 08:10:54;;;;;;;9.50;3.80;;;2.30;99.90;;;;;;5151280;27;20190;-74
2022/01/31 08:13:24;;;;;;;4.60;2.47;;;2.30;99.90;;;;;;5135739;27;20294;-74
2022/01/31 08:16:02;;;;;;;9.37;3.00;;;2.20;99.90;;;;;;5134690;27;20218;-76
2022/01/31 08:18:31;;;;;;;7.87;3.03;;;2.30;99.90;;;;;;5155475;27;20214;-75
2022/01/31 08:20:58;;;;;;;7.93;2.70;;;2.20;99.90;;;;;;5139889;27;20222;-75
2022/01/31 08:23:25;;;;;;;10.77;2.30;;;2.30;99.90;;;;;;5133816;27;20205;-74
2022/01/31 08:25:52;;;;;;;9.57;3.00;;;2.30;99.90;;;;;;5136942;27;20207;-73
2022/01/31 08:28:28;;;;;;;10.63;3.27;;;2.30;99.90;;;;;;5131862;27;20640;-75
2022/01/31 08:30:58;;;;;;;6.00;2.73;;;2.30;99.90;;;;;;5122119;27;20311;-76
2022/01/31 08:33:36;;;;;;;7.53;2.83;;;2.40;99.90;;;;;;5124411;27;20226;-77
2022/01/31 08:36:05;;;;;;;8.33;3.20;;;2.40;99.90;;;;;;5156724;27;20233;-75
2022/01/31 08:38:32;;;;;;;13.17;3.90;;;2.50;99.90;;;;;;5133899;27;20302;-76
2022/01/31 08:41:00;;;;;;;10.53;3.57;;;2.70;99.90;;;;;;5126823;27;20224;-74
2022/01/31 08:43:27;;;;;;;9.93;3.37;;;2.80;99.90;;;;;;5122044;27;20323;-75
2022/01/31 08:45:55;;;;;;;9.67;2.83;;;2.90;99.90;;;;;;5131451;27;20214;-76
2022/01/31 08:48:22;;;;;;;4.10;2.07;;;2.90;99.90;;;;;;5144219;27;20760;-72
2022/01/31 08:50:51;;;;;;;7.40;2.60;;;3.10;99.90;;;;;;5133316;27;20200;-76
2022/01/31 08:53:18;;;;;;;7.20;2.70;;;3.20;99.90;;;;;;5138374;27;20608;-76
2022/01/31 08:55:52;;;;;;;9.23;2.13;;;3.20;99.90;;;;;;5139577;27;20214;-76
2022/01/31 08:58:20;;;;;;;8.50;2.60;;;3.10;99.90;;;;;;5151286;27;20683;-76
2022/01/31 09:00:49;;;;;;;7.80;3.07;;;3.20;99.90;;;;;;5143007;27;20219;-76
2022/01/31 09:03:35;;;;;;;11.17;3.70;;;3.10;99.90;;;;;;5136275;27;20211;-76
2022/01/31 09:06:04;;;;;;;9.23;2.63;;;3.00;99.90;;;;;;5150010;27;20202;-75
2022/01/31 09:08:31;;;;;;;10.77;3.23;;;3.00;99.90;;;;;;5142497;27;20566;-74
2022/01/31 09:10:59;;;;;;;8.27;2.70;;;3.00;99.90;;;;;;5143050;27;20233;-74
2022/01/31 09:13:27;;;;;;;4.83;2.20;;;3.00;99.90;;;;;;5135175;27;20651;-76
2022/01/31 09:15:54;;;;;;;8.47;2.53;;;2.90;99.90;;;;;;5132384;27;20298;-76
2022/01/31 09:18:21;;;;;;;11.63;2.83;;;3.00;99.90;;;;;;5134207;27;20228;-74
2022/01/31 09:20:49;;;;;;;8.67;2.70;;;3.00;99.90;;;;;;5137658;27;20302;-74
2022/01/31 09:23:18;;;;;;;6.70;2.97;;;2.90;99.90;;;;;;5131512;27;20668;-75
2022/01/31 09:25:47;;;;;;;6.17;2.60;;;3.00;99.90;;;;;;5136955;27;20301;-76
2022/01/31 09:28:14;;;;;;;10.73;3.90;;;3.00;99.90;;;;;;5134460;27;20206;-74
2022/01/31 09:30:42;;;;;;;5.87;2.40;;;3.00;99.90;;;;;;5135487;27;20200;-74
2022/01/31 09:33:09;;;;;;;8.53;2.40;;;3.00;99.90;;;;;;5134903;27;20203;-74
2022/01/31 09:35:36;;;;;;;9.23;2.73;;;3.00;99.90;;;;;;5135371;27;20278;-74
2022/01/31 09:38:08;;;;;;;8.70;2.80;;;3.10;99.90;;;;;;5146509;27;20203;-76
2022/01/31 09:40:37;;;;;;;6.23;2.33;;;3.40;99.90;;;;;;5136610;27;20211;-73
2022/01/31 09:43:25;;;;;;;5.27;2.60;;;3.90;99.90;;;;;;5127528;27;20197;-74
2022/01/31 09:46:01;;;;;;;7.77;2.40;;;4.80;99.90;;;;;;5120524;27;20222;-74
2022/01/31 09:48:36;;;;;;;8.10;2.43;;;5.90;99.90;;;;;;5138982;27;20274;-76
2022/01/31 09:51:06;;;;;;;5.63;2.23;;;6.60;99.90;;;;;;5135670;27;20210;-74
2022/01/31 09:53:36;;;;;;;6.73;2.13;;;6.90;99.90;;;;;;5134976;27;20846;-75
2022/01/31 09:56:08;;;;;;;7.17;2.40;;;7.70;99.90;;;;;;5131648;27;20215;-76
2022/01/31 09:58:36;;;;;;;5.63;2.67;;;8.60;99.90;;;;;;5130803;27;20236;-74
2022/01/31 10:01:09;;;;;;;6.60;2.23;;;8.90;98.40;;;;;;5137756;27;20270;-76
2022/01/31 10:03:47;;;;;;;6.23;2.63;;;9.30;99.90;;;;;;5140072;27;20299;-76
2022/01/31 10:06:21;;;;;;;6.40;1.90;;;10.40;93.10;;;;;;5130488;27;20687;-78
2022/01/31 10:08:48;;;;;;;5.77;2.30;;;10.50;86.00;;;;;;5138685;27;20282;-77
2022/01/31 10:11:28;;;;;;;5.67;2.50;;;10.00;79.80;;;;;;5131262;27;20575;-76
2022/01/31 10:16:46;;;;;;;4.37;2.10;;;11.40;87.70;;;;;;5139053;27;20295;-71
2022/01/31 10:19:13;;;;;;;4.43;2.77;;;13.20;76.10;;;;;;5140078;27;20233;-77
2022/01/31 10:22:04;;;;;;;6.50;2.63;;;13.20;64.60;;;;;;5128077;27;20220;-74
2022/01/31 10:24:33;;;;;;;4.37;1.70;;;13.40;70.00;;;;;;5137565;27;20196;-76
2022/01/31 10:27:09;;;;;;;4.70;1.87;;;14.90;67.40;;;;;;5135667;27;20642;-75
2022/01/31 10:29:36;;;;;;;11.17;2.73;;;16.00;56.10;;;;;;5133010;27;20203;-76
2022/01/31 10:32:06;;;;;;;6.27;1.90;;;16.20;59.80;;;;;;5135767;27;20654;-75
2022/01/31 10:34:36;;;;;;;4.87;1.90;;;16.90;56.60;;;;;;5122574;27;20211;-77
2022/01/31 10:37:09;;;;;;;6.80;2.00;;;17.70;51.40;;;;;;5137975;27;20586;-77
2022/01/31 10:54:12;;;;;;;8.03;2.53;;;16.20;47.90;;;;;;5129127;28;20191;-76
2022/01/31 10:56:42;;;;;;;3.57;2.03;;;15.50;47.80;;;;;;5134666;27;20244;-70
2022/01/31 10:59:13;;;;;;;3.23;2.13;;;16.80;53.70;;;;;;5133524;28;20221;-71
2022/01/31 11:01:41;;;;;;;4.23;2.20;;;18.90;47.80;;;;;;5128933;27;20291;-71
2022/01/31 11:04:11;;;;;;;2.67;1.83;;;19.30;44.60;;;;;;5129498;28;20661;-71
2022/01/31 11:06:40;;;;;;;2.92;1.90;;;20.50;46.10;;;;;;5137642;27;20239;-78
2022/01/31 11:09:09;;;;;;;6.32;2.08;;;22.60;42.20;;;;;;5136448;27;20222;-76
2022/01/31 11:11:38;;;;;;;5.97;2.05;;;24.90;39.70;;;;;;5136584;28;20673;-77
2022/01/31 11:14:06;;;;;;;5.15;2.10;;;27.00;35.90;;;;;;5134624;27;20237;-75
2022/01/31 11:16:36;;;;;;;5.28;2.20;;;28.50;33.70;;;;;;5133787;27;20256;-76
2022/01/31 11:19:10;;;;;;;5.60;2.40;;;29.40;31.10;;;;;;5137665;27;20207;-75
2022/01/31 11:21:39;;;;;;;4.55;2.30;;;28.10;30.60;;;;;;5135624;27;20207;-75
2022/01/31 11:24:17;;;;;;;7.05;2.20;;;25.90;29.20;;;;;;5135838;27;20203;-75
2022/01/31 11:26:49;;;;;;;6.15;2.03;;;23.40;30.90;;;;;;5140340;27;20211;-75
2022/01/31 11:29:16;;;;;;;4.07;1.67;;;22.90;34.80;;;;;;5134304;27;20203;-75
2022/01/31 11:31:45;;;;;;;6.50;1.73;;;23.40;33.50;;;;;;5134546;27;20203;-76
2022/01/31 11:34:14;;;;;;;6.32;2.72;;;24.30;32.60;;;;;;5145601;27;20558;-77
2022/01/31 11:36:42;;;;;;;6.85;1.98;;;23.50;29.70;;;;;;5141777;27;20284;-76
2022/01/31 11:39:11;;;;;;;4.63;1.90;;;21.70;30.20;;;;;;5132439;27;20222;-74
2022/01/31 11:41:43;;;;;;;5.25;2.05;;;19.70;31.60;;;;;;5141278;27;20637;-75
2022/01/31 11:44:24;;;;;;;7.20;2.10;;;17.50;33.30;;;;;;5138867;27;20285;-76
2022/01/31 11:46:55;;;;;;;4.53;1.67;;;15.60;35.60;;;;;;5141109;27;20225;-74
2022/01/31 11:49:22;;;;;;;2.60;1.40;;;14.00;37.50;;;;;;5132560;27;20207;-76
2022/01/31 11:52:02;;;;;;;3.47;1.13;;;12.80;39.00;;;;;;5142740;27;20207;-75
2022/01/31 11:54:29;;;;;;;4.23;1.40;;;11.60;40.40;;;;;;5136661;27;20199;-75
2022/01/31 11:56:56;;;;;;;2.87;1.60;;;10.50;41.90;;;;;;5138502;27;20222;-75
2022/01/31 11:59:24;;;;;;;4.40;1.90;;;9.70;44.30;;;;;;5138538;27;20211;-74
2022/01/31 12:01:54;;;;;;;5.00;2.13;;;9.20;45.90;;;;;;5137943;27;20261;-75
2022/01/31 12:04:25;;;;;;;3.17;1.80;;;8.60;46.90;;;;;;5133020;27;20685;-76
2022/01/31 12:06:52;;;;;;;5.43;1.93;;;8.10;47.70;;;;;;5125390;27;20579;-74
2022/01/31 12:09:24;;;;;;;2.70;1.27;;;7.70;48.80;;;;;;5128215;27;20268;-75
2022/01/31 12:12:05;;;;;;;4.23;1.40;;;7.50;51.60;;;;;;5126637;27;20268;-74
2022/01/31 12:14:45;;;;;;;3.90;1.20;;;7.40;50.80;;;;;;5130568;27;20249;-75
2022/01/31 12:17:54;;;;;;;3.47;1.60;;;7.30;50.90;;;;;;5135156;27;20225;-74
2022/01/31 12:23:44;;;;;;;7.00;1.97;;;6.70;52.80;;;;;;5140547;27;20259;-76
2022/01/31 12:26:52;;;;;;;6.20;2.07;;;6.60;53.50;;;;;;5131597;27;20226;-74
2022/01/31 12:29:21;;;;;;;6.47;1.70;;;6.50;54.50;;;;;;5141579;27;20198;-74
2022/01/31 12:31:50;;;;;;;5.80;2.23;;;6.50;54.70;;;;;;5138764;27;20230;-75
2022/01/31 12:34:44;;;;;;;6.47;2.27;;;6.40;54.70;;;;;;5137643;27;20215;-75
2022/01/31 12:37:28;;;;;;;4.87;1.80;;;6.30;55.90;;;;;;5123730;27;20272;-75
2022/01/31 12:40:10;;;;;;;4.43;2.03;;;6.30;55.90;;;;;;5128822;27;20226;-75
2022/01/31 12:43:10;;;;;;;5.37;2.43;;;6.30;55.90;;;;;;5134111;27;20211;-75
2022/01/31 12:46:09;;;;;;;5.43;2.50;;;6.10;56.30;;;;;;5121358;27;20200;-75
2022/01/31 12:48:37;;;;;;;6.03;1.50;;;5.80;57.30;;;;;;5112555;27;20200;-74
2022/01/31 12:51:14;;;;;;;3.30;1.47;;;5.70;57.50;;;;;;5144108;27;20668;-75
2022/01/31 12:53:46;;;;;;;3.70;1.90;;;5.50;57.40;;;;;;5137437;27;20214;-74
2022/01/31 12:56:21;;;;;;;4.20;1.53;;;5.30;58.30;;;;;;5137654;27;20253;-75
2022/01/31 12:58:50;;;;;;;5.27;2.10;;;5.20;58.30;;;;;;5141063;27;20292;-75
2022/01/31 13:01:20;;;;;;;5.87;2.37;;;5.00;58.90;;;;;;5138552;27;20242;-75
2022/01/31 13:03:48;;;;;;;9.43;2.53;;;5.00;59.40;;;;;;5134758;27;20207;-75
2022/01/31 13:06:28;;;;;;;6.70;2.37;;;4.90;59.90;;;;;;5135615;27;20275;-74
2022/01/31 13:08:57;;;;;;;3.37;2.37;;;4.90;60.40;;;;;;5125064;27;20274;-75
2022/01/31 13:11:24;;;;;;;7.33;2.20;;;4.90;61.00;;;;;;5147885;27;20199;-75
2022/01/31 13:13:51;;;;;;;4.60;2.10;;;4.90;61.90;;;;;;5137114;27;20210;-75
2022/01/31 13:16:21;;;;;;;3.83;1.83;;;5.00;62.60;;;;;;5140132;27;20305;-75
2022/01/31 13:18:48;;;;;;;6.07;2.17;;;5.00;62.50;;;;;;5137418;27;20256;-76
2022/01/31 13:21:17;;;;;;;6.00;2.00;;;5.00;62.80;;;;;;5137943;27;20721;-74
2022/01/31 13:23:45;;;;;;;6.57;1.97;;;5.00;62.80;;;;;;5127980;27;20207;-75
2022/01/31 13:26:12;;;;;;;5.20;1.73;;;4.90;63.60;;;;;;5134017;27;20287;-75
2022/01/31 13:28:39;;;;;;;4.47;2.03;;;4.90;62.50;;;;;;5129027;27;20204;-75